createdAt,value
2023-04-24T00:01:41.219Z,1.45
2023-04-24T00:04:12.000Z,1.67
2023-04-24T00:06:39.665Z,1.67
2023-04-24T00:09:06.778Z,1.73
2023-04-24T00:11:33.846Z,1.67
2023-04-24T00:14:00.949Z,1.63
2023-04-24T00:16:28.774Z,1.50
2023-04-24T00:18:56.061Z,2.08
2023-04-24T00:21:26.486Z,1.70
2023-04-24T00:23:53.622Z,1.80
2023-04-24T00:26:20.677Z,1.70
2023-04-24T00:28:47.820Z,1.33
2023-04-24T00:31:14.967Z,1.30
2023-04-24T00:33:42.124Z,1.88
2023-04-24T00:36:09.198Z,1.20
2023-04-24T00:38:36.257Z,1.80
2023-04-24T00:41:03.306Z,1.77
2023-04-24T00:43:30.449Z,1.58
2023-04-24T00:45:57.624Z,1.55
2023-04-24T00:48:25.062Z,1.80
2023-04-24T00:50:52.127Z,1.60
2023-04-24T00:53:19.182Z,1.50
2023-04-24T00:55:46.291Z,1.52
2023-04-24T00:58:13.385Z,1.70
2023-04-24T01:00:40.690Z,1.88
2023-04-24T01:03:08.098Z,1.60
2023-04-24T01:05:35.597Z,1.23
2023-04-24T01:08:02.702Z,1.15
2023-04-24T01:10:29.801Z,1.38
2023-04-24T01:12:56.892Z,1.33
2023-04-24T01:15:23.997Z,1.50
2023-04-24T01:17:51.340Z,1.40
2023-04-24T01:20:18.739Z,1.25
2023-04-24T01:22:45.763Z,1.30
2023-04-24T01:25:12.891Z,1.13
2023-04-24T01:27:40.001Z,1.40
2023-04-24T01:30:07.832Z,1.30
2023-04-24T01:32:34.907Z,1.17
2023-04-24T01:35:02.044Z,1.13
2023-04-24T01:37:29.220Z,1.20
2023-04-24T01:39:56.298Z,1.33
2023-04-24T01:42:23.344Z,1.58
2023-04-24T01:44:50.480Z,1.48
2023-04-24T01:47:17.581Z,1.23
2023-04-24T01:49:45.107Z,1.30
2023-04-24T01:52:12.562Z,1.40
2023-04-24T01:54:39.664Z,1.77
2023-04-24T01:57:06.949Z,1.45
2023-04-24T01:59:34.003Z,1.30
2023-04-24T02:02:01.159Z,1.50
2023-04-24T02:04:28.270Z,1.35
2023-04-24T02:06:55.422Z,1.42
2023-04-24T02:09:22.505Z,1.70
2023-04-24T02:11:49.652Z,1.40
2023-04-24T02:14:16.790Z,1.50
2023-04-24T02:16:44.934Z,2.28
2023-04-24T02:19:12.113Z,1.40
2023-04-24T02:21:39.329Z,1.65
2023-04-24T02:24:06.528Z,1.60
2023-04-24T02:26:33.572Z,1.63
2023-04-24T02:29:00.881Z,1.90
2023-04-24T02:31:27.966Z,2.20
2023-04-24T02:33:55.150Z,2.50
2023-04-24T02:36:22.818Z,2.38
2023-04-24T02:38:49.934Z,2.90
2023-04-24T02:41:17.045Z,3.58
2023-04-24T02:43:44.174Z,2.92
2023-04-24T02:46:11.311Z,2.97
2023-04-24T02:48:38.432Z,3.05
2023-04-24T02:51:05.713Z,4.10
2023-04-24T02:53:32.837Z,4.10
2023-04-24T02:55:59.934Z,4.55
2023-04-24T02:58:27.009Z,4.40
2023-04-24T03:00:57.252Z,4.97
2023-04-24T03:03:25.630Z,5.18
2023-04-24T03:05:52.925Z,5.28
2023-04-24T03:08:20.044Z,6.05
2023-04-24T03:10:48.295Z,6.05
2023-04-24T03:13:15.690Z,5.45
2023-04-24T03:15:42.775Z,5.45
2023-04-24T03:18:09.909Z,6.20
2023-04-24T03:20:38.480Z,6.53
2023-04-24T03:23:05.633Z,6.05
2023-04-24T03:25:32.703Z,6.88
2023-04-24T03:27:59.761Z,7.00
2023-04-24T03:30:26.875Z,6.90
2023-04-24T03:32:53.917Z,7.03
2023-04-24T03:35:22.250Z,7.97
2023-04-24T03:37:49.360Z,7.32
2023-04-24T03:40:16.456Z,7.15
2023-04-24T03:42:43.521Z,7.28
2023-04-24T03:45:10.835Z,8.05
2023-04-24T03:47:37.883Z,7.70
2023-04-24T03:50:05.117Z,7.82
2023-04-24T03:52:32.225Z,7.93
2023-04-24T03:54:59.304Z,5.97
2023-04-24T03:57:26.454Z,6.32
2023-04-24T03:59:54.511Z,6.32
2023-04-24T04:02:21.682Z,4.78
2023-04-24T04:04:48.932Z,4.75
2023-04-24T04:07:16.060Z,4.32
2023-04-24T04:09:43.344Z,3.75
2023-04-24T04:12:10.683Z,3.58
2023-04-24T04:14:37.749Z,3.30
2023-04-24T04:17:04.796Z,2.58
2023-04-24T04:19:31.870Z,2.50
2023-04-24T04:21:59.009Z,2.20
2023-04-24T04:24:27.487Z,1.90
2023-04-24T04:26:57.478Z,2.20
2023-04-24T04:29:24.899Z,1.70
2023-04-24T04:31:52.050Z,1.75
2023-04-24T04:34:19.455Z,2.00
2023-04-24T04:36:47.212Z,1.95
2023-04-24T04:39:16.009Z,2.20
2023-04-24T04:41:43.185Z,2.00
2023-04-24T04:44:10.736Z,2.00
2023-04-24T04:46:38.339Z,1.80
2023-04-24T04:49:05.640Z,2.03
2023-04-24T04:51:32.884Z,2.42
2023-04-24T04:53:59.936Z,2.15
2023-04-24T04:56:27.152Z,2.25
2023-04-24T04:58:54.319Z,1.95
2023-04-24T05:01:22.274Z,1.80
2023-04-24T05:03:49.550Z,1.95
2023-04-24T05:06:16.814Z,2.08
2023-04-24T05:08:43.880Z,2.10
2023-04-24T05:11:11.020Z,1.98
2023-04-24T05:13:40.830Z,2.08
2023-04-24T05:16:08.563Z,1.85
2023-04-24T05:18:35.774Z,2.47
2023-04-24T05:21:02.918Z,1.92
2023-04-24T05:23:30.078Z,2.28
2023-04-24T05:25:57.098Z,2.00
2023-04-24T05:28:24.136Z,2.15
2023-04-24T05:30:51.194Z,2.30
2023-04-24T05:33:18.290Z,2.10
2023-04-24T05:35:48.134Z,1.90
2023-04-24T05:38:15.390Z,2.35
2023-04-24T05:40:42.542Z,2.03
2023-04-24T05:43:09.616Z,2.20
2023-04-24T05:45:37.105Z,1.73
2023-04-24T05:48:04.703Z,2.20
2023-04-24T05:50:31.856Z,1.83
2023-04-24T05:53:03.075Z,1.67
2023-04-24T05:55:30.174Z,1.90
2023-04-24T05:57:57.253Z,2.10
2023-04-24T06:00:25.330Z,2.00
2023-04-24T06:02:53.942Z,1.80
2023-04-24T06:05:21.363Z,2.00
2023-04-24T06:07:48.958Z,1.63
2023-04-24T06:10:16.565Z,1.80
2023-04-24T06:12:43.630Z,2.30
2023-04-24T06:15:11.068Z,2.00
2023-04-24T06:17:38.159Z,1.88
2023-04-24T06:20:06.700Z,2.25
2023-04-24T06:22:33.786Z,2.33
2023-04-24T06:25:02.196Z,2.53
2023-04-24T06:27:29.193Z,2.78
2023-04-24T06:29:56.442Z,3.10
2023-04-24T06:32:25.019Z,3.00
2023-04-24T06:34:55.475Z,3.03
2023-04-24T06:37:22.558Z,3.00
2023-04-24T06:39:49.594Z,2.70
2023-04-24T06:42:16.698Z,2.83
2023-04-24T06:44:43.839Z,2.80
2023-04-24T06:47:14.590Z,2.80
2023-04-24T06:49:41.925Z,2.90
2023-04-24T06:52:09.275Z,2.25
2023-04-24T06:54:36.286Z,3.17
2023-04-24T06:57:04.076Z,2.83
2023-04-24T06:59:31.616Z,2.80
2023-04-24T07:01:58.999Z,2.42
2023-04-24T07:04:26.674Z,3.42
2023-04-24T07:06:56.752Z,2.85
2023-04-24T07:09:24.718Z,3.05
2023-04-24T07:11:52.389Z,3.35
2023-04-24T07:14:19.487Z,2.95
2023-04-24T07:16:46.827Z,3.40
2023-04-24T07:19:14.783Z,3.97
2023-04-24T07:21:41.906Z,3.40
2023-04-24T07:24:11.688Z,3.10
2023-04-24T07:26:39.109Z,3.15
2023-04-24T07:29:06.312Z,3.50
2023-04-24T07:31:33.415Z,3.20
2023-04-24T07:34:00.558Z,3.25
2023-04-24T07:36:28.966Z,3.55
2023-04-24T07:38:57.266Z,3.20
2023-04-24T07:41:25.282Z,3.58
2023-04-24T07:43:53.510Z,3.70
2023-04-24T07:46:20.927Z,3.50
2023-04-24T07:48:53.534Z,2.80
2023-04-24T07:51:27.998Z,2.80
2023-04-24T07:53:58.144Z,2.47
2023-04-24T07:56:27.810Z,2.38
2023-04-24T07:58:55.241Z,2.42
2023-04-24T08:01:22.297Z,2.47
2023-04-24T08:03:49.576Z,2.25
2023-04-24T08:06:16.757Z,2.22
2023-04-24T08:08:43.820Z,2.78
2023-04-24T08:11:10.889Z,2.72
2023-04-24T08:13:38.023Z,2.40
2023-04-24T08:16:05.278Z,2.47
2023-04-24T08:18:32.667Z,2.40
2023-04-24T08:21:02.260Z,2.03
2023-04-24T08:23:30.646Z,2.57
2023-04-24T08:25:58.772Z,2.00
2023-04-24T08:28:25.872Z,2.40
2023-04-24T08:30:55.481Z,2.28
2023-04-24T08:33:23.608Z,2.50
2023-04-24T08:35:51.024Z,2.08
2023-04-24T08:38:18.230Z,2.95
2023-04-24T08:40:47.110Z,2.30
2023-04-24T08:43:14.784Z,2.10
2023-04-24T08:45:42.000Z,2.17
2023-04-24T08:48:16.514Z,2.40
2023-04-24T08:50:53.878Z,1.80
2023-04-24T08:53:20.983Z,2.20
2023-04-24T08:55:48.671Z,2.00
2023-04-24T08:58:17.264Z,2.13
2023-04-24T09:00:47.827Z,2.08
2023-04-24T09:03:16.293Z,1.75
2023-04-24T09:05:46.802Z,1.83
2023-04-24T09:08:14.950Z,1.98
2023-04-24T09:10:42.227Z,1.90
2023-04-24T09:13:12.705Z,2.28
2023-04-24T09:15:40.167Z,1.85
2023-04-24T09:18:07.282Z,2.08
2023-04-24T09:20:36.232Z,1.70
2023-04-24T09:23:03.491Z,1.70
2023-04-24T09:25:34.562Z,1.80
2023-04-24T09:28:02.655Z,1.52
2023-04-24T09:30:30.179Z,2.00
2023-04-24T09:33:16.686Z,1.77
2023-04-24T09:35:44.420Z,1.50
2023-04-24T09:38:11.903Z,1.38
2023-04-24T09:40:41.441Z,1.73
2023-04-24T09:43:11.068Z,1.63
2023-04-24T09:45:38.527Z,1.40
2023-04-24T09:48:07.462Z,1.40
2023-04-24T09:50:35.516Z,1.42
2023-04-24T09:53:06.116Z,1.88
2023-04-24T09:55:34.037Z,1.35
2023-04-24T09:58:01.554Z,1.45
2023-04-24T10:00:28.657Z,1.23
2023-04-24T10:02:56.577Z,1.13
2023-04-24T10:05:25.502Z,1.08
2023-04-24T10:07:52.762Z,1.00
2023-04-24T10:10:19.831Z,1.10
2023-04-24T10:12:46.904Z,1.30
2023-04-24T10:15:14.130Z,1.02
2023-04-24T10:17:41.428Z,0.95
2023-04-24T10:20:09.239Z,1.20
2023-04-24T10:22:36.277Z,1.00
2023-04-24T10:25:04.524Z,0.90
2023-04-24T10:27:31.817Z,1.20
2023-04-24T10:29:58.929Z,1.25
2023-04-24T10:32:26.910Z,1.20
2023-04-24T10:34:54.766Z,1.20
2023-04-24T10:37:22.073Z,1.38
2023-04-24T10:39:49.752Z,1.42
2023-04-24T10:42:17.343Z,1.63
2023-04-24T10:44:44.464Z,3.00
2023-04-24T10:47:17.685Z,1.27
2023-04-24T10:49:44.792Z,1.08
2023-04-24T10:52:13.002Z,0.60
2023-04-24T10:54:44.270Z,0.95
2023-04-24T10:57:23.430Z,0.75
2023-04-24T10:59:54.127Z,0.60
2023-04-24T11:02:21.372Z,0.70
2023-04-24T11:04:48.981Z,0.70
2023-04-24T11:07:16.172Z,0.55
2023-04-24T11:12:31.093Z,0.50
2023-04-24T11:14:58.996Z,0.60
2023-04-24T11:17:35.494Z,0.60
2023-04-24T11:20:15.409Z,0.73
2023-04-24T11:22:46.369Z,0.68
2023-04-24T11:25:13.479Z,0.55
2023-04-24T11:27:43.249Z,0.50
2023-04-24T11:30:11.198Z,0.60
2023-04-24T11:32:39.317Z,0.60
2023-04-24T11:35:07.993Z,0.60
2023-04-24T11:37:36.318Z,0.70
2023-04-24T11:40:03.826Z,0.75
2023-04-24T11:42:35.115Z,0.70
2023-04-24T11:45:03.354Z,0.68
2023-04-24T11:47:31.489Z,0.50
2023-04-24T11:49:59.685Z,0.60
2023-04-24T11:52:27.465Z,0.98
2023-04-24T11:54:54.580Z,0.60
2023-04-24T11:57:23.184Z,0.70
2023-04-24T11:59:50.465Z,0.60
2023-04-24T12:02:27.126Z,0.50
2023-04-24T12:04:54.930Z,0.50
2023-04-24T12:07:22.400Z,0.63
2023-04-24T12:09:52.716Z,0.63
2023-04-24T12:12:19.933Z,1.15
2023-04-24T12:14:50.937Z,0.70
2023-04-24T12:17:18.335Z,0.57
2023-04-24T12:19:49.035Z,0.50
2023-04-24T12:22:16.121Z,0.60
2023-04-24T12:24:58.992Z,0.50
2023-04-24T12:27:26.460Z,0.47
2023-04-24T12:29:54.574Z,0.50
2023-04-24T12:32:21.692Z,0.40
2023-04-24T12:34:48.803Z,0.40
2023-04-24T12:37:15.823Z,0.47
2023-04-24T12:39:46.690Z,0.57
2023-04-24T12:42:13.963Z,0.50
2023-04-24T12:44:41.057Z,0.70
2023-04-24T12:47:08.499Z,0.80
2023-04-24T12:49:35.783Z,0.80
2023-04-24T12:52:02.797Z,1.05
2023-04-24T12:54:34.548Z,1.10
2023-04-24T12:57:01.723Z,1.38
2023-04-24T12:59:28.791Z,1.40
2023-04-24T13:01:55.923Z,1.70
2023-04-24T13:04:23.157Z,1.50
2023-04-24T13:06:50.606Z,1.50
2023-04-24T13:09:17.726Z,1.30
2023-04-24T13:11:44.781Z,1.55
2023-04-24T13:14:11.831Z,1.27
2023-04-24T13:16:38.910Z,1.48
2023-04-24T13:19:06.059Z,1.83
2023-04-24T13:21:33.276Z,2.00
2023-04-24T13:24:00.377Z,1.67
2023-04-24T13:26:27.450Z,1.80
2023-04-24T13:28:54.493Z,1.90
2023-04-24T13:31:21.810Z,2.13
2023-04-24T13:33:48.871Z,2.13
2023-04-24T13:36:16.911Z,2.20
2023-04-24T13:38:44.037Z,2.60
2023-04-24T13:41:11.102Z,2.28
2023-04-24T13:43:38.223Z,2.15
2023-04-24T13:46:05.429Z,2.28
2023-04-24T13:48:32.575Z,2.22
2023-04-24T13:50:59.680Z,2.65
2023-04-24T13:53:26.731Z,2.58
2023-04-24T13:55:53.821Z,2.40
2023-04-24T13:58:21.627Z,2.03
2023-04-24T14:00:48.671Z,2.35
2023-04-24T14:03:16.116Z,2.47
2023-04-24T14:05:43.204Z,2.53
2023-04-24T14:08:10.240Z,2.50
2023-04-24T14:10:37.318Z,2.28
2023-04-24T14:13:04.364Z,2.50
2023-04-24T14:15:31.552Z,2.40
2023-04-24T14:17:58.663Z,1.85
2023-04-24T14:20:26.012Z,3.67
2023-04-24T14:22:54.301Z,3.05
2023-04-24T14:25:21.440Z,3.15
2023-04-24T14:27:48.924Z,2.83
2023-04-24T14:30:17.077Z,2.13
2023-04-24T14:32:44.137Z,2.30
2023-04-24T14:35:11.247Z,1.92
2023-04-24T14:37:38.331Z,2.00
2023-04-24T14:42:38.777Z,1.92
2023-04-24T14:45:06.154Z,2.72
2023-04-24T14:47:33.181Z,2.40
2023-04-24T14:50:00.557Z,2.58
2023-04-24T14:52:27.801Z,3.10
2023-04-24T14:54:54.928Z,2.60
2023-04-24T14:57:22.056Z,2.70
2023-04-24T14:59:49.216Z,2.72
2023-04-24T15:02:23.434Z,2.67
2023-04-24T15:04:50.832Z,2.30
2023-04-24T15:07:18.215Z,2.13
2023-04-24T15:09:45.277Z,2.60
2023-04-24T15:12:13.389Z,2.60
2023-04-24T15:14:40.806Z,3.05
2023-04-24T15:17:07.979Z,2.72
2023-04-24T15:19:35.350Z,2.88
2023-04-24T15:22:02.395Z,2.80
2023-04-24T15:24:29.455Z,2.95
2023-04-24T15:26:58.839Z,2.60
2023-04-24T15:29:28.192Z,2.58
2023-04-24T15:31:55.501Z,3.10
2023-04-24T15:34:22.594Z,2.50
2023-04-24T15:36:49.750Z,2.75
2023-04-24T15:39:16.993Z,6.72
2023-04-24T15:41:44.091Z,3.20
2023-04-24T15:44:11.125Z,3.30
2023-04-24T15:46:38.365Z,2.60
2023-04-24T15:49:05.734Z,2.78
2023-04-24T15:51:32.777Z,2.47
2023-04-24T15:53:59.830Z,2.60
2023-04-24T15:56:27.245Z,3.00
2023-04-24T15:58:55.379Z,2.83
2023-04-24T16:01:22.497Z,3.80
2023-04-24T16:03:49.981Z,3.80
2023-04-24T16:06:17.158Z,3.35
2023-04-24T16:08:44.151Z,3.05
2023-04-24T16:11:11.309Z,3.33
2023-04-24T16:13:38.436Z,3.53
2023-04-24T16:16:05.637Z,3.60
2023-04-24T16:18:33.071Z,3.75
2023-04-24T16:21:00.144Z,3.80
2023-04-24T16:23:27.160Z,4.20
2023-04-24T16:25:54.251Z,3.63
2023-04-24T16:28:21.336Z,3.50
2023-04-24T16:30:48.472Z,3.85
2023-04-24T16:33:15.875Z,3.75
2023-04-24T16:35:44.171Z,3.42
2023-04-24T16:38:11.275Z,3.85
2023-04-24T16:40:38.526Z,4.60
2023-04-24T16:43:05.795Z,3.60
2023-04-24T16:45:32.887Z,4.30
2023-04-24T16:47:59.964Z,4.10
2023-04-24T16:50:27.136Z,4.10
2023-04-24T16:52:54.201Z,4.00
2023-04-24T16:55:21.258Z,3.92
2023-04-24T16:57:48.400Z,3.38
2023-04-24T17:00:16.384Z,5.43
2023-04-24T17:02:48.382Z,3.38
2023-04-24T17:05:15.862Z,3.53
2023-04-24T17:07:42.948Z,4.05
2023-04-24T17:10:10.207Z,3.90
2023-04-24T17:12:37.272Z,4.18
2023-04-24T17:15:04.528Z,5.45
2023-04-24T17:17:31.748Z,4.90
2023-04-24T17:20:01.575Z,2.85
2023-04-24T17:22:31.216Z,3.38
2023-04-24T17:24:58.305Z,3.58
2023-04-24T17:27:25.406Z,2.97
2023-04-24T17:29:52.497Z,3.67
2023-04-24T17:32:19.580Z,3.30
2023-04-24T17:34:47.773Z,3.38
2023-04-24T17:37:15.089Z,3.53
2023-04-24T17:39:42.152Z,3.63
2023-04-24T17:42:09.301Z,3.22
2023-04-24T17:44:36.492Z,3.80
2023-04-24T17:47:04.826Z,3.97
2023-04-24T17:49:31.957Z,5.20
2023-04-24T17:51:58.999Z,3.72
2023-04-24T17:54:26.038Z,3.53
2023-04-24T17:56:53.103Z,4.43
2023-04-24T17:59:20.415Z,4.07
2023-04-24T18:01:47.497Z,3.90
2023-04-24T18:04:14.705Z,4.10
2023-04-24T18:06:43.452Z,4.40
2023-04-24T18:09:10.622Z,3.63
2023-04-24T18:11:37.850Z,4.28
2023-04-24T18:14:04.919Z,3.55
2023-04-24T18:16:32.024Z,3.95
2023-04-24T18:18:59.124Z,3.72
2023-04-24T18:21:26.717Z,3.90
2023-04-24T18:23:55.145Z,4.25
2023-04-24T18:26:22.199Z,6.82
2023-04-24T18:28:49.549Z,5.05
2023-04-24T18:31:16.877Z,4.45
2023-04-24T18:33:44.218Z,5.63
2023-04-24T18:36:11.363Z,4.63
2023-04-24T18:38:38.517Z,3.92
2023-04-24T18:41:05.596Z,3.70
2023-04-24T18:43:32.673Z,3.78
2023-04-24T18:45:59.679Z,3.90
2023-04-24T18:48:29.777Z,3.90
2023-04-24T18:50:56.861Z,4.22
2023-04-24T18:53:23.896Z,4.50
2023-04-24T18:55:51.438Z,4.43
2023-04-24T18:58:19.024Z,4.35
2023-04-24T19:00:46.203Z,3.88
2023-04-24T19:03:13.484Z,5.00
2023-04-24T19:05:40.696Z,4.38
2023-04-24T19:08:07.788Z,4.00
2023-04-24T19:10:36.590Z,4.47
2023-04-24T19:13:03.663Z,4.60
2023-04-24T19:15:30.972Z,4.25
2023-04-24T19:17:58.078Z,4.60
2023-04-24T19:20:26.087Z,6.05
2023-04-24T19:22:53.158Z,5.18
2023-04-24T19:25:20.553Z,4.85
2023-04-24T19:27:47.746Z,5.90
2023-04-24T19:30:15.144Z,5.78
2023-04-24T19:32:42.205Z,6.65
2023-04-24T19:35:09.445Z,5.93
2023-04-24T19:37:36.666Z,5.72
2023-04-24T19:40:03.801Z,5.60
2023-04-24T19:42:42.670Z,5.80
2023-04-24T19:45:11.769Z,6.20
2023-04-24T19:47:39.068Z,8.93
2023-04-24T19:50:06.604Z,7.38
2023-04-24T19:52:33.645Z,6.50
2023-04-24T19:55:00.920Z,6.40
2023-04-24T19:57:28.069Z,6.55
2023-04-24T19:59:55.108Z,7.05
2023-04-24T20:02:22.258Z,6.78
2023-04-24T20:04:49.456Z,6.13
2023-04-24T20:07:16.705Z,7.00
2023-04-24T20:09:43.762Z,7.05
2023-04-24T20:12:10.944Z,8.38
2023-04-24T20:14:37.954Z,6.30
2023-04-24T20:17:05.045Z,6.70
2023-04-24T20:19:32.116Z,6.30
2023-04-24T20:21:59.584Z,7.22
2023-04-24T20:24:26.642Z,6.63
2023-04-24T20:26:53.721Z,6.88
2023-04-24T20:29:21.146Z,7.45
2023-04-24T20:31:48.217Z,7.05
2023-04-24T20:34:15.528Z,7.32
2023-04-24T20:36:46.990Z,7.72
2023-04-24T20:39:16.848Z,7.78
2023-04-24T20:41:46.247Z,8.18
2023-04-24T20:44:13.316Z,8.00
2023-04-24T20:46:40.587Z,10.50
2023-04-24T20:49:07.744Z,7.53
2023-04-24T20:51:34.887Z,7.80
2023-04-24T20:54:01.956Z,7.45
2023-04-24T20:56:29.040Z,7.30
2023-04-24T20:58:57.191Z,7.53
2023-04-24T21:01:24.772Z,7.32
2023-04-24T21:03:52.776Z,7.55
2023-04-24T21:06:20.355Z,7.45
2023-04-24T21:08:47.406Z,7.05
2023-04-24T21:11:14.489Z,7.13
2023-04-24T21:13:41.512Z,6.70
2023-04-24T21:16:08.680Z,8.00
2023-04-24T21:18:40.832Z,7.03
2023-04-24T21:21:10.663Z,7.68
2023-04-24T21:23:37.736Z,7.60
2023-04-24T21:26:04.992Z,7.03
2023-04-24T21:28:32.109Z,7.85
2023-04-24T21:30:59.196Z,7.30
2023-04-24T21:33:26.390Z,7.18
2023-04-24T21:35:53.460Z,7.65
2023-04-24T21:38:23.194Z,7.40
2023-04-24T21:40:50.837Z,7.43
2023-04-24T21:43:28.063Z,7.28
2023-04-24T21:46:04.613Z,7.00
2023-04-24T21:48:31.711Z,6.63
2023-04-24T21:50:58.746Z,8.15
2023-04-24T21:53:25.818Z,7.80
2023-04-24T21:55:52.862Z,7.68
2023-04-24T21:58:19.965Z,8.90
2023-04-24T22:00:46.995Z,8.10
2023-04-24T22:03:14.508Z,7.90
2023-04-24T22:05:41.722Z,7.93
2023-04-24T22:08:10.364Z,8.00
2023-04-24T22:10:37.853Z,8.75
2023-04-24T22:13:04.946Z,8.85
2023-04-24T22:15:32.181Z,8.73
2023-04-24T22:18:01.127Z,8.65
2023-04-24T22:20:29.093Z,8.70
2023-04-24T22:22:56.165Z,8.80
2023-04-24T22:25:23.222Z,9.52
2023-04-24T22:27:50.617Z,9.85
2023-04-24T22:30:18.046Z,9.35
2023-04-24T22:32:45.301Z,9.68
2023-04-24T22:35:12.398Z,9.15
2023-04-24T22:37:39.447Z,9.73
2023-04-24T22:40:08.358Z,8.82
2023-04-24T22:42:35.446Z,8.77
2023-04-24T22:45:02.552Z,9.18
2023-04-24T22:47:29.786Z,9.18
2023-04-24T22:49:57.965Z,8.70
2023-04-24T22:52:24.974Z,8.60
2023-04-24T22:54:52.213Z,9.57
2023-04-24T22:57:19.279Z,9.00
2023-04-24T22:59:46.299Z,9.40
2023-04-24T23:02:13.592Z,9.20
2023-04-24T23:04:40.881Z,9.68
2023-04-24T23:07:07.937Z,9.48
2023-04-24T23:09:35.018Z,8.68
2023-04-24T23:12:02.155Z,9.07
2023-04-24T23:14:29.833Z,9.15
2023-04-24T23:16:56.901Z,9.15
2023-04-24T23:19:24.035Z,9.45
2023-04-24T23:21:51.157Z,9.57
2023-04-24T23:24:18.200Z,9.27
2023-04-24T23:26:45.340Z,10.23
2023-04-24T23:29:12.400Z,9.23
2023-04-24T23:31:39.518Z,10.38
2023-04-24T23:34:06.595Z,10.55
2023-04-24T23:36:33.700Z,11.05
2023-04-24T23:39:01.336Z,11.73
2023-04-24T23:41:28.461Z,11.15
2023-04-24T23:43:55.492Z,11.65
2023-04-24T23:46:22.822Z,11.93
2023-04-24T23:48:49.949Z,11.68
2023-04-24T23:51:17.065Z,11.15
2023-04-24T23:53:44.179Z,11.88
2023-04-24T23:56:11.222Z,10.75
2023-04-24T23:58:38.565Z,12.20
